sensor_id;sensor_type;location;lat;lon;timestamp;temperature;humidity
26051;DHT22;13825;53.496;10.020;2023-07-09T00:00:13;18.30;99.90
26051;DHT22;13825;53.496;10.020;2023-07-09T00:02:46;18.40;3.10
26051;DHT22;13825;53.496;10.020;2023-07-09T00:07:54;18.20;99.90
26051;DHT22;13825;53.496;10.020;2023-07-09T00:10:31;18.20;99.90
26051;DHT22;13825;53.496;10.020;2023-07-09T00:13:03;18.20;99.90
26051;DHT22;13825;53.496;10.020;2023-07-09T00:15:32;18.10;29.10
26051;DHT22;13825;53.496;10.020;2023-07-09T00:18:04;18.10;99.90
26051;DHT22;13825;53.496;10.020;2023-07-09T00:20:33;18.10;99.90
26051;DHT22;13825;53.496;10.020;2023-07-09T00:23:01;18.10;99.90
26051;DHT22;13825;53.496;10.020;2023-07-09T00:25:30;18.00;99.90
26051;DHT22;13825;53.496;10.020;2023-07-09T00:28:03;18.00;9.50
26051;DHT22;13825;53.496;10.020;2023-07-09T00:30:33;18.00;1.00
26051;DHT22;13825;53.496;10.020;2023-07-09T00:33:02;18.00;1.00
26051;DHT22;13825;53.496;10.020;2023-07-09T00:35:35;17.90;1.00
26051;DHT22;13825;53.496;10.020;2023-07-09T00:38:20;17.90;1.00
26051;DHT22;13825;53.496;10.020;2023-07-09T00:41:01;17.80;1.00
26051;DHT22;13825;53.496;10.020;2023-07-09T00:43:36;17.80;1.00
26051;DHT22;13825;53.496;10.020;2023-07-09T00:46:16;17.70;1.00
26051;DHT22;13825;53.496;10.020;2023-07-09T00:48:48;17.70;1.00
26051;DHT22;13825;53.496;10.020;2023-07-09T00:51:20;17.70;1.00
26051;DHT22;13825;53.496;10.020;2023-07-09T00:53:50;17.60;99.90
26051;DHT22;13825;53.496;10.020;2023-07-09T00:56:26;17.60;99.90
26051;DHT22;13825;53.496;10.020;2023-07-09T00:58:58;17.60;1.00
26051;DHT22;13825;53.496;10.020;2023-07-09T01:01:32;17.60;1.00
26051;DHT22;13825;53.496;10.020;2023-07-09T01:04:08;17.40;1.00
26051;DHT22;13825;53.496;10.020;2023-07-09T01:06:43;17.40;1.00
26051;DHT22;13825;53.496;10.020;2023-07-09T01:09:17;17.40;61.40
26051;DHT22;13825;53.496;10.020;2023-07-09T01:11:51;17.30;99.90
26051;DHT22;13825;53.496;10.020;2023-07-09T01:14:31;17.30;1.00
26051;DHT22;13825;53.496;10.020;2023-07-09T01:17:03;17.20;99.90
26051;DHT22;13825;53.496;10.020;2023-07-09T01:19:40;17.30;99.90
26051;DHT22;13825;53.496;10.020;2023-07-09T01:22:17;17.30;1.00
26051;DHT22;13825;53.496;10.020;2023-07-09T01:24:58;17.30;1.00
26051;DHT22;13825;53.496;10.020;2023-07-09T01:27:31;17.20;99.90
26051;DHT22;13825;53.496;10.020;2023-07-09T01:30:00;17.20;1.00
26051;DHT22;13825;53.496;10.020;2023-07-09T01:32:32;17.10;99.90
26051;DHT22;13825;53.496;10.020;2023-07-09T01:35:05;17.10;99.90
26051;DHT22;13825;53.496;10.020;2023-07-09T01:37:44;17.10;69.50
26051;DHT22;13825;53.496;10.020;2023-07-09T01:40:23;17.00;99.90
26051;DHT22;13825;53.496;10.020;2023-07-09T01:42:54;17.00;99.90
26051;DHT22;13825;53.496;10.020;2023-07-09T01:45:23;17.00;99.90
26051;DHT22;13825;53.496;10.020;2023-07-09T01:47:51;16.90;99.90
26051;DHT22;13825;53.496;10.020;2023-07-09T01:50:24;17.00;99.90
26051;DHT22;13825;53.496;10.020;2023-07-09T01:52:57;16.90;99.90
26051;DHT22;13825;53.496;10.020;2023-07-09T01:55:29;16.80;75.80
26051;DHT22;13825;53.496;10.020;2023-07-09T01:57:59;16.80;99.90
26051;DHT22;13825;53.496;10.020;2023-07-09T02:03:41;16.80;99.90
26051;DHT22;13825;53.496;10.020;2023-07-09T02:06:09;16.80;99.90
26051;DHT22;13825;53.496;10.020;2023-07-09T02:08:42;16.80;1.00
26051;DHT22;13825;53.496;10.020;2023-07-09T02:11:13;16.70;32.80
26051;DHT22;13825;53.496;10.020;2023-07-09T02:13:41;16.70;99.90
26051;DHT22;13825;53.496;10.020;2023-07-09T02:16:13;16.60;99.90
26051;DHT22;13825;53.496;10.020;2023-07-09T02:18:42;16.60;99.90
26051;DHT22;13825;53.496;10.020;2023-07-09T02:21:10;16.60;1.00
26051;DHT22;13825;53.496;10.020;2023-07-09T02:23:48;16.60;99.90
26051;DHT22;13825;53.496;10.020;2023-07-09T02:26:16;16.50;99.90
26051;DHT22;13825;53.496;10.020;2023-07-09T02:28:49;16.50;99.90
26051;DHT22;13825;53.496;10.020;2023-07-09T02:31:18;16.50;99.90
26051;DHT22;13825;53.496;10.020;2023-07-09T02:33:52;16.50;99.90
26051;DHT22;13825;53.496;10.020;2023-07-09T02:36:21;16.40;99.90
26051;DHT22;13825;53.496;10.020;2023-07-09T02:38:55;16.40;1.00
26051;DHT22;13825;53.496;10.020;2023-07-09T02:41:22;16.40;99.90
26051;DHT22;13825;53.496;10.020;2023-07-09T02:43:52;16.30;99.90
26051;DHT22;13825;53.496;10.020;2023-07-09T02:46:25;16.30;1.00
26051;DHT22;13825;53.496;10.020;2023-07-09T02:48:55;16.30;96.70
26051;DHT22;13825;53.496;10.020;2023-07-09T02:51:31;16.20;41.80
26051;DHT22;13825;53.496;10.020;2023-07-09T02:54:19;16.20;1.00
26051;DHT22;13825;53.496;10.020;2023-07-09T02:56:48;16.30;1.00
26051;DHT22;13825;53.496;10.020;2023-07-09T02:59:19;16.20;1.00
26051;DHT22;13825;53.496;10.020;2023-07-09T03:01:49;16.20;99.90
26051;DHT22;13825;53.496;10.020;2023-07-09T03:04:17;16.10;50.50
26051;DHT22;13825;53.496;10.020;2023-07-09T03:06:53;16.00;1.00
26051;DHT22;13825;53.496;10.020;2023-07-09T03:09:36;16.10;37.60
26051;DHT22;13825;53.496;10.020;2023-07-09T03:12:04;16.20;99.90
26051;DHT22;13825;53.496;10.020;2023-07-09T03:14:37;16.00;99.90
26051;DHT22;13825;53.496;10.020;2023-07-09T03:17:05;16.20;99.90
26051;DHT22;13825;53.496;10.020;2023-07-09T03:19:37;16.10;1.00
26051;DHT22;13825;53.496;10.020;2023-07-09T03:22:06;16.10;99.90
26051;DHT22;13825;53.496;10.020;2023-07-09T03:24:35;16.10;99.90
26051;DHT22;13825;53.496;10.020;2023-07-09T03:27:04;16.00;99.90
26051;DHT22;13825;53.496;10.020;2023-07-09T03:29:36;16.10;99.90
26051;DHT22;13825;53.496;10.020;2023-07-09T03:32:07;16.10;99.90
26051;DHT22;13825;53.496;10.020;2023-07-09T03:34:35;16.10;99.90
26051;DHT22;13825;53.496;10.020;2023-07-09T03:37:03;16.10;99.90
26051;DHT22;13825;53.496;10.020;2023-07-09T03:39:35;16.10;71.90
26051;DHT22;13825;53.496;10.020;2023-07-09T03:42:07;16.20;1.00
26051;DHT22;13825;53.496;10.020;2023-07-09T03:44:35;16.10;99.90
26051;DHT22;13825;53.496;10.020;2023-07-09T03:47:03;16.20;11.10
26051;DHT22;13825;53.496;10.020;2023-07-09T03:49:32;16.20;76.00
26051;DHT22;13825;53.496;10.020;2023-07-09T03:52:00;16.20;45.60
26051;DHT22;13825;53.496;10.020;2023-07-09T03:54:28;16.20;24.70
26051;DHT22;13825;53.496;10.020;2023-07-09T03:56:58;16.20;99.90
26051;DHT22;13825;53.496;10.020;2023-07-09T03:59:36;16.20;99.90
26051;DHT22;13825;53.496;10.020;2023-07-09T04:02:06;16.30;99.90
26051;DHT22;13825;53.496;10.020;2023-07-09T04:04:33;16.30;99.90
26051;DHT22;13825;53.496;10.020;2023-07-09T04:07:03;16.30;99.90
26051;DHT22;13825;53.496;10.020;2023-07-09T04:09:32;16.30;83.40
26051;DHT22;13825;53.496;10.020;2023-07-09T04:12:03;16.40;93.80
26051;DHT22;13825;53.496;10.020;2023-07-09T04:14:31;16.40;99.90
26051;DHT22;13825;53.496;10.020;2023-07-09T04:17:01;16.30;99.90
26051;DHT22;13825;53.496;10.020;2023-07-09T04:19:33;16.40;99.90
26051;DHT22;13825;53.496;10.020;2023-07-09T04:22:07;16.50;99.90
26051;DHT22;13825;53.496;10.020;2023-07-09T04:24:36;16.40;99.90
26051;DHT22;13825;53.496;10.020;2023-07-09T04:27:08;16.50;99.90
26051;DHT22;13825;53.496;10.020;2023-07-09T04:29:36;16.50;74.10
26051;DHT22;13825;53.496;10.020;2023-07-09T04:32:12;16.50;99.90
26051;DHT22;13825;53.496;10.020;2023-07-09T04:34:47;16.60;45.00
26051;DHT22;13825;53.496;10.020;2023-07-09T04:37:18;16.60;99.90
26051;DHT22;13825;53.496;10.020;2023-07-09T04:39:48;16.70;99.90
26051;DHT22;13825;53.496;10.020;2023-07-09T04:42:40;16.70;99.90
26051;DHT22;13825;53.496;10.020;2023-07-09T04:45:12;16.80;99.90
26051;DHT22;13825;53.496;10.020;2023-07-09T04:47:40;16.80;1.60
26051;DHT22;13825;53.496;10.020;2023-07-09T04:50:12;16.80;1.00
26051;DHT22;13825;53.496;10.020;2023-07-09T04:52:46;16.90;1.00
26051;DHT22;13825;53.496;10.020;2023-07-09T04:55:14;17.10;1.00
26051;DHT22;13825;53.496;10.020;2023-07-09T04:57:48;17.20;99.90
26051;DHT22;13825;53.496;10.020;2023-07-09T05:00:19;17.30;1.00
26051;DHT22;13825;53.496;10.020;2023-07-09T05:02:50;17.40;99.90
26051;DHT22;13825;53.496;10.020;2023-07-09T05:05:22;17.50;99.90
26051;DHT22;13825;53.496;10.020;2023-07-09T05:07:53;17.50;1.00
26051;DHT22;13825;53.496;10.020;2023-07-09T05:10:21;17.80;1.00
26051;DHT22;13825;53.496;10.020;2023-07-09T05:12:59;17.90;99.90
26051;DHT22;13825;53.496;10.020;2023-07-09T05:15:32;17.90;78.50
26051;DHT22;13825;53.496;10.020;2023-07-09T05:18:04;18.10;99.90
26051;DHT22;13825;53.496;10.020;2023-07-09T05:20:48;18.10;1.00
26051;DHT22;13825;53.496;10.020;2023-07-09T05:23:24;18.30;67.10
26051;DHT22;13825;53.496;10.020;2023-07-09T05:28:45;18.50;99.90
26051;DHT22;13825;53.496;10.020;2023-07-09T05:31:18;18.50;1.00
26051;DHT22;13825;53.496;10.020;2023-07-09T05:33:46;18.70;99.90
26051;DHT22;13825;53.496;10.020;2023-07-09T05:36:27;18.90;99.90
26051;DHT22;13825;53.496;10.020;2023-07-09T05:38:55;18.90;1.00
26051;DHT22;13825;53.496;10.020;2023-07-09T05:41:24;19.10;99.90
26051;DHT22;13825;53.496;10.020;2023-07-09T05:43:56;19.20;1.00
26051;DHT22;13825;53.496;10.020;2023-07-09T05:46:26;19.20;99.90
26051;DHT22;13825;53.496;10.020;2023-07-09T05:49:15;19.30;99.90
26051;DHT22;13825;53.496;10.020;2023-07-09T05:51:46;19.40;99.90
26051;DHT22;13825;53.496;10.020;2023-07-09T05:54:13;19.50;99.90
26051;DHT22;13825;53.496;10.020;2023-07-09T05:56:41;19.50;1.00
26051;DHT22;13825;53.496;10.020;2023-07-09T05:59:11;19.60;99.90
26051;DHT22;13825;53.496;10.020;2023-07-09T06:01:41;19.70;1.00
26051;DHT22;13825;53.496;10.020;2023-07-09T06:04:22;19.80;1.00
26051;DHT22;13825;53.496;10.020;2023-07-09T06:06:52;19.90;1.00
26051;DHT22;13825;53.496;10.020;2023-07-09T06:09:24;20.00;1.00
26051;DHT22;13825;53.496;10.020;2023-07-09T06:11:56;20.00;1.00
26051;DHT22;13825;53.496;10.020;2023-07-09T06:14:34;20.10;99.90
26051;DHT22;13825;53.496;10.020;2023-07-09T06:17:01;20.20;1.00
26051;DHT22;13825;53.496;10.020;2023-07-09T06:19:35;20.30;1.00
26051;DHT22;13825;53.496;10.020;2023-07-09T06:22:16;20.40;1.00
26051;DHT22;13825;53.496;10.020;2023-07-09T06:24:46;20.50;15.70
26051;DHT22;13825;53.496;10.020;2023-07-09T06:27:13;20.60;1.00
26051;DHT22;13825;53.496;10.020;2023-07-09T06:29:43;20.70;1.00
26051;DHT22;13825;53.496;10.020;2023-07-09T06:32:11;20.80;1.00
26051;DHT22;13825;53.496;10.020;2023-07-09T06:34:43;20.90;99.90
26051;DHT22;13825;53.496;10.020;2023-07-09T06:37:22;20.90;1.00
26051;DHT22;13825;53.496;10.020;2023-07-09T06:39:53;21.00;1.00
26051;DHT22;13825;53.496;10.020;2023-07-09T06:42:26;21.20;11.00
26051;DHT22;13825;53.496;10.020;2023-07-09T06:45:17;21.40;99.90
26051;DHT22;13825;53.496;10.020;2023-07-09T06:48:01;21.40;99.90
26051;DHT22;13825;53.496;10.020;2023-07-09T06:54:05;21.80;99.90
26051;DHT22;13825;53.496;10.020;2023-07-09T06:56:37;21.90;1.00
26051;DHT22;13825;53.496;10.020;2023-07-09T06:59:47;21.90;99.90
26051;DHT22;13825;53.496;10.020;2023-07-09T07:08:59;22.20;99.90
26051;DHT22;13825;53.496;10.020;2023-07-09T07:11:37;22.20;1.00
26051;DHT22;13825;53.496;10.020;2023-07-09T07:17:20;22.40;1.00
26051;DHT22;13825;53.496;10.020;2023-07-09T07:19:47;22.50;1.00
26051;DHT22;13825;53.496;10.020;2023-07-09T07:22:27;22.60;1.00
26051;DHT22;13825;53.496;10.020;2023-07-09T07:28:16;22.40;1.00
26051;DHT22;13825;53.496;10.020;2023-07-09T08:38:49;25.60;1.00
26051;DHT22;13825;53.496;10.020;2023-07-09T08:41:29;25.60;99.90
26051;DHT22;13825;53.496;10.020;2023-07-09T08:44:11;25.80;8.60
26051;DHT22;13825;53.496;10.020;2023-07-09T08:46:51;26.00;1.00
26051;DHT22;13825;53.496;10.020;2023-07-09T08:49:34;26.10;1.00
26051;DHT22;13825;53.496;10.020;2023-07-09T08:52:03;26.40;99.90
26051;DHT22;13825;53.496;10.020;2023-07-09T08:54:36;26.50;1.00
26051;DHT22;13825;53.496;10.020;2023-07-09T08:57:22;26.40;99.90
26051;DHT22;13825;53.496;10.020;2023-07-09T08:59:57;26.60;99.90
26051;DHT22;13825;53.496;10.020;2023-07-09T09:02:44;26.70;99.90
26051;DHT22;13825;53.496;10.020;2023-07-09T09:05:19;27.00;99.90
26051;DHT22;13825;53.496;10.020;2023-07-09T09:07:51;27.10;99.90
26051;DHT22;13825;53.496;10.020;2023-07-09T09:10:27;27.40;99.90
26051;DHT22;13825;53.496;10.020;2023-07-09T09:15:37;27.60;99.90
26051;DHT22;13825;53.496;10.020;2023-07-09T09:20:55;27.70;99.90
26051;DHT22;13825;53.496;10.020;2023-07-09T09:23:29;27.90;1.00
26051;DHT22;13825;53.496;10.020;2023-07-09T09:26:14;27.90;99.90
26051;DHT22;13825;53.496;10.020;2023-07-09T09:28:47;28.10;99.90
26051;DHT22;13825;53.496;10.020;2023-07-09T09:31:15;28.00;99.90
26051;DHT22;13825;53.496;10.020;2023-07-09T09:33:47;28.00;74.40
26051;DHT22;13825;53.496;10.020;2023-07-09T09:36:16;28.00;99.90
26051;DHT22;13825;53.496;10.020;2023-07-09T09:38:44;28.10;99.90
26051;DHT22;13825;53.496;10.020;2023-07-09T09:41:22;28.30;99.90
26051;DHT22;13825;53.496;10.020;2023-07-09T09:44:31;28.10;99.90
26051;DHT22;13825;53.496;10.020;2023-07-09T09:47:02;28.30;1.00
26051;DHT22;13825;53.496;10.020;2023-07-09T09:49:46;28.40;1.00
26051;DHT22;13825;53.496;10.020;2023-07-09T09:52:18;28.60;1.00
26051;DHT22;13825;53.496;10.020;2023-07-09T09:57:23;28.70;99.90
26051;DHT22;13825;53.496;10.020;2023-07-09T09:59:55;28.80;1.00
26051;DHT22;13825;53.496;10.020;2023-07-09T10:02:26;29.00;99.90
26051;DHT22;13825;53.496;10.020;2023-07-09T10:05:15;29.10;1.00
26051;DHT22;13825;53.496;10.020;2023-07-09T10:07:45;29.40;1.00
26051;DHT22;13825;53.496;10.020;2023-07-09T10:10:19;29.50;99.90
26051;DHT22;13825;53.496;10.020;2023-07-09T10:12:50;29.60;99.90
26051;DHT22;13825;53.496;10.020;2023-07-09T10:15:31;29.70;99.90
26051;DHT22;13825;53.496;10.020;2023-07-09T10:18:09;29.70;99.90
26051;DHT22;13825;53.496;10.020;2023-07-09T10:21:08;30.00;99.90
26051;DHT22;13825;53.496;10.020;2023-07-09T10:23:47;30.10;99.90
26051;DHT22;13825;53.496;10.020;2023-07-09T10:26:25;30.30;99.90
26051;DHT22;13825;53.496;10.020;2023-07-09T10:34:50;30.40;99.90
26051;DHT22;13825;53.496;10.020;2023-07-09T10:39:58;30.50;99.90
26051;DHT22;13825;53.496;10.020;2023-07-09T10:42:29;30.70;99.90
26051;DHT22;13825;53.496;10.020;2023-07-09T11:19:29;32.10;1.00
26051;DHT22;13825;53.496;10.020;2023-07-09T11:22:03;32.40;99.90
26051;DHT22;13825;53.496;10.020;2023-07-09T11:24:34;32.40;99.90
26051;DHT22;13825;53.496;10.020;2023-07-09T11:27:02;32.40;99.90
26051;DHT22;13825;53.496;10.020;2023-07-09T11:29:45;32.30;99.90
26051;DHT22;13825;53.496;10.020;2023-07-09T11:32:22;32.40;99.90
26051;DHT22;13825;53.496;10.020;2023-07-09T11:34:51;32.60;99.90
26051;DHT22;13825;53.496;10.020;2023-07-09T11:37:24;32.70;99.90
26051;DHT22;13825;53.496;10.020;2023-07-09T11:39:52;32.90;99.90
26051;DHT22;13825;53.496;10.020;2023-07-09T11:42:30;32.90;99.90
26051;DHT22;13825;53.496;10.020;2023-07-09T11:45:04;33.00;99.90
26051;DHT22;13825;53.496;10.020;2023-07-09T11:47:39;33.00;99.90
26051;DHT22;13825;53.496;10.020;2023-07-09T11:50:28;33.20;99.90
26051;DHT22;13825;53.496;10.020;2023-07-09T11:53:29;33.40;99.90
26051;DHT22;13825;53.496;10.020;2023-07-09T11:56:11;33.40;1.00
26051;DHT22;13825;53.496;10.020;2023-07-09T11:59:13;33.30;99.90
26051;DHT22;13825;53.496;10.020;2023-07-09T12:01:46;33.50;99.90
26051;DHT22;13825;53.496;10.020;2023-07-09T12:04:32;33.50;99.90
26051;DHT22;13825;53.496;10.020;2023-07-09T12:07:25;33.70;99.90
26051;DHT22;13825;53.496;10.020;2023-07-09T13:19:51;35.40;1.00
26051;DHT22;13825;53.496;10.020;2023-07-09T13:22:21;35.80;1.00
26051;DHT22;13825;53.496;10.020;2023-07-09T13:24:48;36.10;1.00
26051;DHT22;13825;53.496;10.020;2023-07-09T13:27:21;36.20;1.00
26051;DHT22;13825;53.496;10.020;2023-07-09T13:29:49;36.40;1.00
26051;DHT22;13825;53.496;10.020;2023-07-09T13:32:16;36.70;1.00
26051;DHT22;13825;53.496;10.020;2023-07-09T13:34:44;36.60;1.00
26051;DHT22;13825;53.496;10.020;2023-07-09T13:37:15;36.50;1.00
26051;DHT22;13825;53.496;10.020;2023-07-09T13:42:21;36.70;1.00
26051;DHT22;13825;53.496;10.020;2023-07-09T13:44:56;36.70;1.00
26051;DHT22;13825;53.496;10.020;2023-07-09T13:47:27;37.30;1.00
26051;DHT22;13825;53.496;10.020;2023-07-09T13:50:01;37.40;1.00
26051;DHT22;13825;53.496;10.020;2023-07-09T13:52:41;37.20;1.00
26051;DHT22;13825;53.496;10.020;2023-07-09T13:55:21;37.50;1.00
26051;DHT22;13825;53.496;10.020;2023-07-09T13:57:50;37.70;1.00
26051;DHT22;13825;53.496;10.020;2023-07-09T14:00:22;37.40;1.00
26051;DHT22;13825;53.496;10.020;2023-07-09T14:02:54;37.70;1.00
26051;DHT22;13825;53.496;10.020;2023-07-09T14:05:21;37.30;1.00
26051;DHT22;13825;53.496;10.020;2023-07-09T14:08:06;37.10;1.00
26051;DHT22;13825;53.496;10.020;2023-07-09T14:10:38;36.80;1.00
26051;DHT22;13825;53.496;10.020;2023-07-09T14:13:16;36.60;1.00
26051;DHT22;13825;53.496;10.020;2023-07-09T14:15:46;36.30;1.00
26051;DHT22;13825;53.496;10.020;2023-07-09T14:18:16;36.60;1.00
26051;DHT22;13825;53.496;10.020;2023-07-09T14:20:45;36.60;1.00
26051;DHT22;13825;53.496;10.020;2023-07-09T14:23:16;36.90;1.00
26051;DHT22;13825;53.496;10.020;2023-07-09T14:25:49;36.70;1.00
26051;DHT22;13825;53.496;10.020;2023-07-09T14:32:07;37.60;1.00
26051;DHT22;13825;53.496;10.020;2023-07-09T14:53:28;39.70;1.00
26051;DHT22;13825;53.496;10.020;2023-07-09T14:56:11;40.40;1.00
26051;DHT22;13825;53.496;10.020;2023-07-09T15:29:55;42.60;1.00
26051;DHT22;13825;53.496;10.020;2023-07-09T15:32:28;42.50;1.00
26051;DHT22;13825;53.496;10.020;2023-07-09T15:35:03;42.90;1.00
26051;DHT22;13825;53.496;10.020;2023-07-09T15:37:31;42.10;1.00
26051;DHT22;13825;53.496;10.020;2023-07-09T15:40:03;41.80;1.00
26051;DHT22;13825;53.496;10.020;2023-07-09T15:42:31;41.30;1.00
26051;DHT22;13825;53.496;10.020;2023-07-09T15:45:04;40.90;1.00
26051;DHT22;13825;53.496;10.020;2023-07-09T15:47:40;40.70;1.00
26051;DHT22;13825;53.496;10.020;2023-07-09T15:50:17;40.00;1.00
26051;DHT22;13825;53.496;10.020;2023-07-09T15:52:54;39.80;1.00
26051;DHT22;13825;53.496;10.020;2023-07-09T15:55:26;39.30;1.00
26051;DHT22;13825;53.496;10.020;2023-07-09T15:57:55;39.10;1.00
26051;DHT22;13825;53.496;10.020;2023-07-09T16:00:28;39.10;1.00
26051;DHT22;13825;53.496;10.020;2023-07-09T16:02:57;38.50;1.00
26051;DHT22;13825;53.496;10.020;2023-07-09T16:05:29;38.30;1.00
26051;DHT22;13825;53.496;10.020;2023-07-09T16:07:58;38.20;1.00
26051;DHT22;13825;53.496;10.020;2023-07-09T16:10:29;38.00;1.00
26051;DHT22;13825;53.496;10.020;2023-07-09T16:12:59;37.50;1.00
26051;DHT22;13825;53.496;10.020;2023-07-09T16:24:26;36.70;1.00
26051;DHT22;13825;53.496;10.020;2023-07-09T16:30:08;36.00;1.00
26051;DHT22;13825;53.496;10.020;2023-07-09T16:32:40;35.80;1.00
26051;DHT22;13825;53.496;10.020;2023-07-09T16:35:14;36.20;1.00
26051;DHT22;13825;53.496;10.020;2023-07-09T16:37:46;35.90;1.00
26051;DHT22;13825;53.496;10.020;2023-07-09T16:40:19;35.50;1.00
26051;DHT22;13825;53.496;10.020;2023-07-09T16:42:47;35.10;1.00
26051;DHT22;13825;53.496;10.020;2023-07-09T16:45:17;34.60;1.00
26051;DHT22;13825;53.496;10.020;2023-07-09T16:47:45;34.20;1.00
26051;DHT22;13825;53.496;10.020;2023-07-09T16:50:18;33.90;1.00
26051;DHT22;13825;53.496;10.020;2023-07-09T16:52:50;33.70;1.00
26051;DHT22;13825;53.496;10.020;2023-07-09T16:55:21;33.60;1.00
26051;DHT22;13825;53.496;10.020;2023-07-09T16:57:52;33.20;1.00
26051;DHT22;13825;53.496;10.020;2023-07-09T17:00:29;32.90;1.00
26051;DHT22;13825;53.496;10.020;2023-07-09T17:03:11;32.60;1.00
26051;DHT22;13825;53.496;10.020;2023-07-09T17:05:39;32.40;1.00
26051;DHT22;13825;53.496;10.020;2023-07-09T17:08:10;32.10;1.00
26051;DHT22;13825;53.496;10.020;2023-07-09T17:10:42;31.80;1.00
26051;DHT22;13825;53.496;10.020;2023-07-09T17:13:17;31.60;1.00
26051;DHT22;13825;53.496;10.020;2023-07-09T17:15:56;31.30;1.00
26051;DHT22;13825;53.496;10.020;2023-07-09T17:18:26;31.10;1.00
26051;DHT22;13825;53.496;10.020;2023-07-09T17:20:56;31.00;1.00
26051;DHT22;13825;53.496;10.020;2023-07-09T17:23:25;30.70;1.00
26051;DHT22;13825;53.496;10.020;2023-07-09T17:25:57;30.60;1.00
26051;DHT22;13825;53.496;10.020;2023-07-09T17:28:28;30.40;1.00
26051;DHT22;13825;53.496;10.020;2023-07-09T17:31:00;30.30;1.00
26051;DHT22;13825;53.496;10.020;2023-07-09T17:33:31;30.20;1.00
26051;DHT22;13825;53.496;10.020;2023-07-09T17:36:01;30.00;1.00
26051;DHT22;13825;53.496;10.020;2023-07-09T17:38:35;30.00;1.00
26051;DHT22;13825;53.496;10.020;2023-07-09T17:41:06;29.90;1.00
26051;DHT22;13825;53.496;10.020;2023-07-09T17:43:41;29.80;1.00
26051;DHT22;13825;53.496;10.020;2023-07-09T17:46:10;29.70;1.00
26051;DHT22;13825;53.496;10.020;2023-07-09T17:48:41;29.60;1.00
26051;DHT22;13825;53.496;10.020;2023-07-09T17:51:13;29.50;1.00
26051;DHT22;13825;53.496;10.020;2023-07-09T17:53:40;29.30;1.00
26051;DHT22;13825;53.496;10.020;2023-07-09T17:58:53;29.00;1.00
26051;DHT22;13825;53.496;10.020;2023-07-09T18:01:20;28.90;1.00
26051;DHT22;13825;53.496;10.020;2023-07-09T18:03:50;28.80;1.00
26051;DHT22;13825;53.496;10.020;2023-07-09T18:06:18;28.60;1.00
26051;DHT22;13825;53.496;10.020;2023-07-09T18:08:46;28.60;1.00
26051;DHT22;13825;53.496;10.020;2023-07-09T18:11:28;28.50;1.00
26051;DHT22;13825;53.496;10.020;2023-07-09T18:14:04;28.40;99.90
26051;DHT22;13825;53.496;10.020;2023-07-09T18:16:34;28.30;1.00
26051;DHT22;13825;53.496;10.020;2023-07-09T18:19:02;28.20;1.00
26051;DHT22;13825;53.496;10.020;2023-07-09T18:21:34;28.10;1.00
26051;DHT22;13825;53.496;10.020;2023-07-09T18:24:02;28.10;1.00
26051;DHT22;13825;53.496;10.020;2023-07-09T18:26:33;27.90;1.00
26051;DHT22;13825;53.496;10.020;2023-07-09T18:29:20;27.80;99.90
26051;DHT22;13825;53.496;10.020;2023-07-09T18:31:52;27.70;99.90
26051;DHT22;13825;53.496;10.020;2023-07-09T18:34:46;27.60;99.90
26051;DHT22;13825;53.496;10.020;2023-07-09T18:37:18;27.60;1.00
26051;DHT22;13825;53.496;10.020;2023-07-09T18:40:00;27.40;99.90
26051;DHT22;13825;53.496;10.020;2023-07-09T18:42:38;27.30;99.90
26051;DHT22;13825;53.496;10.020;2023-07-09T18:45:15;27.30;1.00
26051;DHT22;13825;53.496;10.020;2023-07-09T18:47:45;27.20;1.00
26051;DHT22;13825;53.496;10.020;2023-07-09T18:50:17;27.10;99.90
26051;DHT22;13825;53.496;10.020;2023-07-09T18:52:46;27.00;99.90
26051;DHT22;13825;53.496;10.020;2023-07-09T18:55:19;26.90;99.90
26051;DHT22;13825;53.496;10.020;2023-07-09T18:57:48;26.80;99.90
26051;DHT22;13825;53.496;10.020;2023-07-09T19:00:30;26.70;99.90
26051;DHT22;13825;53.496;10.020;2023-07-09T19:02:57;26.60;99.90
26051;DHT22;13825;53.496;10.020;2023-07-09T19:05:27;26.60;99.90
26051;DHT22;13825;53.496;10.020;2023-07-09T19:07:56;26.50;99.90
26051;DHT22;13825;53.496;10.020;2023-07-09T19:10:26;26.50;1.00
26051;DHT22;13825;53.496;10.020;2023-07-09T19:13:10;26.40;99.90
26051;DHT22;13825;53.496;10.020;2023-07-09T19:15:45;26.30;99.90
26051;DHT22;13825;53.496;10.020;2023-07-09T19:18:32;26.30;99.90
26051;DHT22;13825;53.496;10.020;2023-07-09T19:21:01;26.20;99.90
26051;DHT22;13825;53.496;10.020;2023-07-09T19:23:34;26.10;99.90
26051;DHT22;13825;53.496;10.020;2023-07-09T19:26:01;26.10;1.00
26051;DHT22;13825;53.496;10.020;2023-07-09T19:28:29;26.10;1.00
26051;DHT22;13825;53.496;10.020;2023-07-09T19:31:15;26.00;1.00
26051;DHT22;13825;53.496;10.020;2023-07-09T19:33:51;26.00;99.90
26051;DHT22;13825;53.496;10.020;2023-07-09T19:36:24;26.00;99.90
26051;DHT22;13825;53.496;10.020;2023-07-09T19:39:01;25.90;99.90
26051;DHT22;13825;53.496;10.020;2023-07-09T19:41:41;26.00;99.90
26051;DHT22;13825;53.496;10.020;2023-07-09T19:44:09;26.00;1.00
26051;DHT22;13825;53.496;10.020;2023-07-09T19:46:45;26.00;1.00
26051;DHT22;13825;53.496;10.020;2023-07-09T19:49:12;26.00;1.00
26051;DHT22;13825;53.496;10.020;2023-07-09T19:51:47;25.90;99.90
26051;DHT22;13825;53.496;10.020;2023-07-09T19:54:21;25.80;99.90
26051;DHT22;13825;53.496;10.020;2023-07-09T19:56:51;26.00;1.00
26051;DHT22;13825;53.496;10.020;2023-07-09T19:59:19;26.00;1.00
26051;DHT22;13825;53.496;10.020;2023-07-09T20:01:53;26.40;1.00
26051;DHT22;13825;53.496;10.020;2023-07-09T20:04:25;26.50;1.00
26051;DHT22;13825;53.496;10.020;2023-07-09T20:06:58;26.60;1.00
26051;DHT22;13825;53.496;10.020;2023-07-09T20:09:32;26.30;1.00
26051;DHT22;13825;53.496;10.020;2023-07-09T20:12:18;25.90;1.00
26051;DHT22;13825;53.496;10.020;2023-07-09T20:14:48;25.50;1.00
26051;DHT22;13825;53.496;10.020;2023-07-09T20:17:16;25.10;99.90
26051;DHT22;13825;53.496;10.020;2023-07-09T20:19:46;24.70;99.90
26051;DHT22;13825;53.496;10.020;2023-07-09T20:22:23;23.60;99.90
26051;DHT22;13825;53.496;10.020;2023-07-09T20:24:50;22.90;1.00
26051;DHT22;13825;53.496;10.020;2023-07-09T20:27:21;22.70;1.00
26051;DHT22;13825;53.496;10.020;2023-07-09T20:29:51;22.60;99.90
26051;DHT22;13825;53.496;10.020;2023-07-09T20:32:20;22.70;20.10
26051;DHT22;13825;53.496;10.020;2023-07-09T20:34:51;22.60;3.20
26051;DHT22;13825;53.496;10.020;2023-07-09T20:37:20;22.60;99.90
26051;DHT22;13825;53.496;10.020;2023-07-09T20:39:47;22.70;99.90
26051;DHT22;13825;53.496;10.020;2023-07-09T20:42:16;22.80;99.90
26051;DHT22;13825;53.496;10.020;2023-07-09T20:44:43;22.80;1.00